Weather Station Data

Station Data Captured at Five Minute Intervals Since Midnight Yesterday


Date Time Temp. RH % Dew Pt. Wind Speed Wind Dir. Peak Wind Wind Chill Pressure Precip. Solar W/m2 ET
10/20/17 1:00a 57.9 79 51.4 0.0 --- 0.0 57.9 30.194 0.00 0 0.001
10/20/17 12:55a 58.0 79 51.5 0.0 SSW 1.0 58.0 30.194 0.00 0 0.000
10/20/17 12:50a 58.2 79 51.7 0.0 --- 0.0 58.2 30.193 0.00 0 0.000
10/20/17 12:45a 58.4 78 51.6 0.0 --- 0.0 58.4 30.191 0.00 0 0.000
10/20/17 12:40a 58.5 78 51.7 0.0 --- 0.0 58.5 30.191 0.00 0 0.000
10/20/17 12:35a 58.6 78 51.8 0.0 S 1.0 58.6 30.194 0.00 0 0.000
10/20/17 12:30a 58.7 78 51.9 0.0 S 2.0 58.7 30.195 0.00 0 0.000
10/20/17 12:25a 58.7 78 51.9 0.0 --- 0.0 58.7 30.194 0.00 0 0.000
10/20/17 12:20a 58.9 77 51.7 0.0 S 1.0 58.9 30.195 0.00 0 0.000
10/20/17 12:15a 59.0 78 52.1 0.0 S 1.0 59.0 30.195 0.00 0 0.000
10/20/17 12:10a 58.9 77 51.7 0.0 S 2.0 58.9 30.195 0.00 0 0.000
10/20/17 12:05a 58.9 78 52.1 0.0 SSE 2.0 58.9 30.196 0.00 0 0.000
10/20/17 12:00a 58.8 78 52.0 0.0 SSW 2.0 58.8 30.197 0.00 0 0.001
10/19/17 11:55p 58.6 78 51.8 0.0 SSW 3.0 58.6 30.195 0.00 0 0.000
10/19/17 11:50p 58.5 79 52.0 0.0 SSW 2.0 58.5 30.195 0.00 0 0.000
10/19/17 11:45p 58.3 79 51.8 0.0 SSW 1.0 58.3 30.192 0.00 0 0.000
10/19/17 11:40p 58.4 79 51.9 0.0 SSW 1.0 58.4 30.194 0.00 0 0.000
10/19/17 11:35p 58.6 78 51.8 0.0 SSW 2.0 58.6 30.194 0.00 0 0.000
10/19/17 11:30p 58.9 78 52.1 0.0 SSW 1.0 58.9 30.193 0.00 0 0.000
10/19/17 11:25p 59.0 78 52.1 0.0 SSW 3.0 59.0 30.190 0.00 0 0.000
10/19/17 11:20p 59.0 78 52.1 0.0 SSW 1.0 59.0 30.191 0.00 0 0.000
10/19/17 11:15p 58.9 78 52.1 0.0 SSW 2.0 58.9 30.191 0.00 0 0.000
10/19/17 11:10p 58.9 78 52.1 0.0 SSW 1.0 58.9 30.190 0.00 0 0.000
10/19/17 11:05p 58.8 79 52.3 0.0 SSW 1.0 58.8 30.190 0.00 0 0.000
10/19/17 11:00p 58.6 79 52.1 0.0 SSW 2.0 58.6 30.188 0.00 0 0.001
10/19/17 10:55p 58.8 78 52.0 0.0 SSW 1.0 58.8 30.190 0.00 0 0.000
10/19/17 10:50p 58.8 78 52.0 0.0 --- 0.0 58.8 30.191 0.00 0 0.000
10/19/17 10:45p 59.4 77 52.2 0.0 --- 0.0 59.4 30.190 0.00 0 0.000
10/19/17 10:40p 59.9 76 52.3 0.0 SSW 1.0 59.9 30.190 0.00 0 0.000
10/19/17 10:35p 60.3 75 52.3 0.0 SSW 1.0 60.3 30.189 0.00 0 0.000
10/19/17 10:30p 60.5 75 52.5 0.0 SSW 1.0 60.5 30.189 0.00 0 0.000
10/19/17 10:25p 60.7 74 52.4 0.0 SSW 1.0 60.7 30.187 0.00 0 0.000
10/19/17 10:20p 60.9 74 52.6 0.0 SSW 1.0 60.9 30.188 0.00 0 0.000
10/19/17 10:15p 61.0 74 52.7 0.0 --- 0.0 61.0 30.187 0.00 0 0.000
10/19/17 10:10p 61.1 74 52.7 0.0 S 1.0 61.1 30.186 0.00 0 0.000
10/19/17 10:05p 61.3 73 52.6 0.0 S 1.0 61.3 30.185 0.00 0 0.000
10/19/17 10:00p 61.2 73 52.5 0.0 S 2.0 61.2 30.186 0.00 0 0.001
10/19/17 9:55p 61.2 74 52.8 0.0 S 1.0 61.2 30.186 0.00 0 0.000
10/19/17 9:50p 61.1 74 52.7 0.0 S 1.0 61.1 30.185 0.00 0 0.000
10/19/17 9:45p 61.1 74 52.7 0.0 --- 0.0 61.1 30.185 0.00 0 0.000
10/19/17 9:40p 61.1 74 52.7 0.0 S 1.0 61.1 30.183 0.00 0 0.000
10/19/17 9:35p 61.3 74 52.9 0.0 --- 0.0 61.3 30.184 0.00 0 0.000
10/19/17 9:30p 61.4 73 52.7 0.0 --- 0.0 61.4 30.184 0.00 0 0.000
10/19/17 9:25p 61.6 73 52.9 0.0 --- 0.0 61.6 30.184 0.00 0 0.000
10/19/17 9:20p 61.6 73 52.9 0.0 --- 0.0 61.6 30.184 0.00 0 0.000
10/19/17 9:15p 61.6 73 52.9 0.0 --- 0.0 61.6 30.183 0.00 0 0.000
10/19/17 9:10p 61.7 73 53.0 0.0 --- 0.0 61.7 30.184 0.00 0 0.000
10/19/17 9:05p 61.9 73 53.1 0.0 S 3.0 61.9 30.184 0.00 0 0.000
10/19/17 9:00p 61.9 72 52.8 0.0 S 1.0 61.9 30.184 0.00 0 0.001
10/19/17 8:55p 61.9 72 52.8 0.0 S 2.0 61.9 30.182 0.00 0 0.000
10/19/17 8:50p 61.8 72 52.7 0.0 S 2.0 61.8 30.182 0.00 0 0.000
10/19/17 8:45p 61.5 73 52.8 0.0 S 1.0 61.5 30.180 0.00 0 0.000
10/19/17 8:40p 61.2 74 52.8 0.0 --- 0.0 61.2 30.181 0.00 0 0.000
10/19/17 8:35p 61.0 75 53.0 0.0 --- 0.0 61.0 30.177 0.00 0 0.000
10/19/17 8:30p 61.2 75 53.2 0.0 --- 0.0 61.2 30.178 0.00 0 0.000
10/19/17 8:25p 61.5 74 53.1 0.0 --- 0.0 61.5 30.177 0.00 0 0.000
10/19/17 8:20p 61.8 73 53.1 0.0 --- 0.0 61.8 30.178 0.00 0 0.000
10/19/17 8:15p 62.0 72 52.9 0.0 --- 0.0 62.0 30.177 0.00 0 0.000
10/19/17 8:10p 62.1 71 52.6 0.0 --- 0.0 62.1 30.179 0.00 0 0.000
10/19/17 8:05p 62.6 71 53.1 0.0 --- 0.0 62.6 30.176 0.00 0 0.000
10/19/17 8:00p 63.3 70 53.3 0.0 --- 0.0 63.3 30.175 0.00 0 0.000
10/19/17 7:55p 63.7 69 53.3 0.0 --- 0.0 63.7 30.175 0.00 0 0.000
10/19/17 7:50p 63.9 68 53.1 0.0 --- 0.0 63.9 30.174 0.00 0 0.000
10/19/17 7:45p 63.9 68 53.1 0.0 --- 0.0 63.9 30.173 0.00 0 0.000
10/19/17 7:40p 64.1 67 52.9 0.0 --- 0.0 64.1 30.173 0.00 0 0.000
10/19/17 7:35p 64.4 67 53.2 0.0 --- 0.0 64.4 30.170 0.00 0 0.000
10/19/17 7:30p 64.7 66 53.1 0.0 --- 0.0 64.7 30.169 0.00 0 0.000
10/19/17 7:25p 65.0 65 52.9 0.0 --- 0.0 65.0 30.169 0.00 0 0.000
10/19/17 7:20p 65.2 65 53.1 0.0 --- 0.0 65.2 30.165 0.00 0 0.000
10/19/17 7:15p 65.4 65 53.3 0.0 --- 0.0 65.4 30.165 0.00 0 0.000
10/19/17 7:10p 65.8 64 53.3 0.0 --- 0.0 65.8 30.164 0.00 0 0.000
10/19/17 7:05p 66.2 63 53.2 0.0 --- 0.0 66.2 30.163 0.00 0 0.000
10/19/17 7:00p 66.6 62 53.2 0.0 S 1.0 66.6 30.164 0.00 0 0.001
10/19/17 6:55p 66.9 62 53.5 0.0 --- 0.0 66.9 30.163 0.00 3 0.000
10/19/17 6:50p 67.2 61 53.3 0.0 S 1.0 67.2 30.163 0.00 6 0.000
10/19/17 6:45p 67.4 60 53.0 0.0 SSW 1.0 67.4 30.163 0.00 8 0.000
10/19/17 6:40p 67.6 60 53.2 0.0 S 3.0 67.6 30.162 0.00 11 0.000
10/19/17 6:35p 67.8 60 53.4 1.0 SSW 3.0 67.8 30.161 0.00 12 0.000
10/19/17 6:30p 68.1 59 53.2 1.0 S 3.0 68.1 30.161 0.00 15 0.000
10/19/17 6:25p 68.3 59 53.4 0.0 S 2.0 68.3 30.162 0.00 18 0.000
10/19/17 6:20p 68.6 58 53.2 1.0 SSW 4.0 68.6 30.161 0.00 20 0.000
10/19/17 6:15p 69.0 58 53.6 1.0 SSW 5.0 69.0 30.162 0.00 22 0.000
10/19/17 6:10p 69.2 58 53.8 2.0 SSW 5.0 69.2 30.163 0.00 25 0.000
10/19/17 6:05p 69.4 57 53.5 2.0 S 6.0 69.4 30.164 0.00 26 0.000
10/19/17 6:00p 69.5 57 53.6 2.0 S 6.0 69.5 30.163 0.00 28 0.002
10/19/17 5:55p 69.7 57 53.8 2.0 SSW 5.0 69.7 30.162 0.00 30 0.000
10/19/17 5:50p 69.9 58 54.4 0.0 S 3.0 69.9 30.162 0.00 31 0.000
10/19/17 5:45p 70.0 58 54.5 1.0 S 6.0 70.0 30.162 0.00 32 0.000
10/19/17 5:40p 70.0 56 53.6 1.0 S 5.0 70.0 30.162 0.00 33 0.000
10/19/17 5:35p 70.0 57 54.1 2.0 S 5.0 70.0 30.161 0.00 34 0.000
10/19/17 5:30p 70.1 56 53.7 3.0 SSW 7.0 70.1 30.162 0.00 36 0.000
10/19/17 5:25p 70.3 56 53.9 2.0 S 7.0 70.3 30.160 0.00 37 0.000
10/19/17 5:20p 70.4 57 54.4 2.0 S 6.0 70.4 30.159 0.00 39 0.000
10/19/17 5:15p 70.4 56 54.0 2.0 SSW 5.0 70.4 30.160 0.00 39 0.000
10/19/17 5:10p 70.4 55 53.5 2.0 S 6.0 70.4 30.158 0.00 40 0.000
10/19/17 5:05p 70.5 54 53.1 3.0 SSW 6.0 70.5 30.160 0.00 40 0.000
10/19/17 5:00p 70.6 55 53.6 3.0 S 8.0 70.6 30.161 0.00 42 0.007
10/19/17 4:55p 70.8 56 54.3 3.0 SSW 6.0 70.8 30.161 0.00 42 0.000
10/19/17 4:50p 70.8 56 54.3 2.0 SSW 7.0 70.8 30.160 0.00 42 0.000
10/19/17 4:45p 70.9 55 53.9 2.0 S 6.0 70.9 30.162 0.00 44 0.000
10/19/17 4:40p 71.2 53 53.2 4.0 SSW 8.0 71.2 30.163 0.00 206 0.000
10/19/17 4:35p 71.6 54 54.1 3.0 S 9.0 71.6 30.164 0.00 317 0.000
10/19/17 4:30p 71.7 54 54.2 1.0 SSE 5.0 71.7 30.163 0.00 358 0.000
10/19/17 4:25p 71.6 56 55.1 2.0 SSW 6.0 71.6 30.164 0.00 369 0.000
10/19/17 4:20p 71.3 55 54.3 3.0 S 7.0 71.3 30.164 0.00 380 0.000
10/19/17 4:15p 71.1 55 54.1 4.0 S 9.0 71.1 30.164 0.00 393 0.000
10/19/17 4:10p 71.3 53 53.3 4.0 S 10.0 71.3 30.167 0.00 405 0.000
10/19/17 4:05p 71.4 56 54.9 2.0 S 7.0 71.4 30.166 0.00 415 0.000
10/19/17 4:00p 71.5 53 53.5 3.0 S 7.0 71.5 30.165 0.00 425 0.013
10/19/17 3:55p 71.4 55 54.4 1.0 SSW 5.0 71.4 30.163 0.00 438 0.000
10/19/17 3:50p 71.0 56 54.5 3.0 S 8.0 71.0 30.161 0.00 449 0.000
10/19/17 3:45p 71.1 54 53.6 3.0 SSW 7.0 71.1 30.162 0.00 460 0.000
10/19/17 3:40p 70.9 54 53.4 3.0 SSW 10.0 70.9 30.162 0.00 468 0.000
10/19/17 3:35p 70.8 56 54.3 4.0 SSW 10.0 70.8 30.160 0.00 477 0.000
10/19/17 3:30p 70.8 55 53.8 3.0 S 8.0 70.8 30.161 0.00 485 0.000
10/19/17 3:25p 71.1 57 55.1 4.0 SSW 10.0 71.1 30.164 0.00 493 0.000
10/19/17 3:20p 71.2 55 54.2 3.0 SSW 8.0 71.2 30.163 0.00 502 0.000
10/19/17 3:15p 70.9 59 55.9 3.0 SSW 9.0 70.9 30.160 0.00 510 0.000
10/19/17 3:10p 70.7 55 53.7 4.0 S 10.0 70.7 30.159 0.00 519 0.000
10/19/17 3:05p 70.9 56 54.4 3.0 SSW 8.0 70.9 30.163 0.00 526 0.000
10/19/17 3:00p 71.0 56 54.5 4.0 SSW 8.0 71.0 30.167 0.00 535 0.014
10/19/17 2:55p 71.1 56 54.6 3.0 SSW 8.0 71.1 30.168 0.00 540 0.000
10/19/17 2:50p 70.9 56 54.4 3.0 SSE 6.0 70.9 30.168 0.00 549 0.000
10/19/17 2:45p 70.8 58 55.3 1.0 S 5.0 70.8 30.169 0.00 556 0.000
10/19/17 2:40p 70.3 55 53.4 4.0 S 8.0 70.3 30.171 0.00 562 0.000
10/19/17 2:35p 70.5 56 54.0 3.0 S 6.0 70.5 30.171 0.00 561 0.000
10/19/17 2:30p 70.2 58 54.7 3.0 S 7.0 70.2 30.171 0.00 574 0.000
10/19/17 2:25p 70.2 57 54.2 3.0 S 7.0 70.2 30.170 0.00 578 0.000
10/19/17 2:20p 70.2 55 53.3 3.0 SSW 10.0 70.2 30.173 0.00 581 0.000
10/19/17 2:15p 70.0 55 53.1 3.0 SSW 8.0 70.0 30.176 0.00 584 0.000
10/19/17 2:10p 70.0 57 54.1 3.0 S 6.0 70.0 30.176 0.00 590 0.000
10/19/17 2:05p 69.6 57 53.7 2.0 S 11.0 69.6 30.178 0.00 592 0.000
10/19/17 2:00p 69.3 57 53.4 3.0 S 8.0 69.3 30.182 0.00 595 0.014
10/19/17 1:55p 68.9 58 53.5 4.0 S 8.0 68.9 30.184 0.00 597 0.000
10/19/17 1:50p 68.6 57 52.8 4.0 SSW 7.0 68.6 30.183 0.00 599 0.000
10/19/17 1:45p 68.4 59 53.5 5.0 SSW 9.0 68.4 30.186 0.00 603 0.000
10/19/17 1:40p 68.4 59 53.5 4.0 SSW 9.0 68.4 30.191 0.00 591 0.000
10/19/17 1:35p 68.1 59 53.2 3.0 S 8.0 68.1 30.193 0.00 599 0.000
10/19/17 1:30p 67.6 61 53.7 4.0 S 7.0 67.6 30.194 0.00 609 0.000
10/19/17 1:25p 67.2 59 52.4 4.0 S 9.0 67.2 30.196 0.00 596 0.000
10/19/17 1:20p 67.0 61 53.1 3.0 S 7.0 67.0 30.197 0.00 540 0.000
10/19/17 1:15p 66.8 60 52.5 4.0 SSW 10.0 66.8 30.198 0.00 525 0.000
10/19/17 1:10p 66.5 60 52.2 5.0 S 9.0 66.5 30.200 0.00 622 0.000
10/19/17 1:05p 66.5 61 52.6 4.0 S 10.0 66.5 30.205 0.00 449 0.000
10/19/17 1:00p 66.7 59 51.9 4.0 S 11.0 66.7 30.204 0.00 543 0.013
10/19/17 12:55p 66.6 64 54.0 3.0 S 8.0 66.6 30.207 0.00 600 0.000
10/19/17 12:50p 66.1 62 52.7 2.0 SSW 6.0 66.1 30.209 0.00 598 0.000
10/19/17 12:45p 65.6 62 52.2 4.0 SSW 8.0 65.6 30.211 0.00 590 0.000
10/19/17 12:40p 65.4 65 53.3 4.0 SSW 10.0 65.4 30.211 0.00 573 0.000
10/19/17 12:35p 65.0 66 53.4 3.0 SSW 8.0 65.0 30.215 0.00 567 0.000
10/19/17 12:30p 64.6 64 52.1 2.0 S 7.0 64.6 30.216 0.00 568 0.000
10/19/17 12:25p 64.1 66 52.5 3.0 SSW 7.0 64.1 30.218 0.00 569 0.000
10/19/17 12:20p 63.8 67 52.6 3.0 S 10.0 63.8 30.219 0.00 562 0.000
10/19/17 12:15p 63.4 67 52.2 3.0 S 8.0 63.4 30.219 0.00 556 0.000
10/19/17 12:10p 63.2 66 51.6 3.0 SSW 9.0 63.2 30.223 0.00 550 0.000
10/19/17 12:05p 62.9 67 51.8 2.0 SSW 8.0 62.9 30.224 0.00 543 0.000
10/19/17 12:00p 62.4 68 51.7 2.0 S 8.0 62.4 30.225 0.00 536 0.009
10/19/17 11:55a 62.0 68 51.3 2.0 S 9.0 62.0 30.225 0.00 527 0.000
10/19/17 11:50a 61.7 68 51.0 3.0 SSW 7.0 61.7 30.223 0.00 521 0.000
10/19/17 11:45a 61.3 69 51.0 3.0 SSW 7.0 61.3 30.222 0.00 515 0.000
10/19/17 11:40a 60.9 69 50.7 2.0 S 6.0 60.9 30.226 0.00 482 0.000
10/19/17 11:35a 60.5 71 51.0 2.0 S 6.0 60.5 30.225 0.00 447 0.000
10/19/17 11:30a 60.0 71 50.6 3.0 SSW 7.0 60.0 30.228 0.00 483 0.000
10/19/17 11:25a 59.6 71 50.2 3.0 SSW 7.0 59.6 30.230 0.00 448 0.000
10/19/17 11:20a 59.1 72 50.1 2.0 SSE 8.0 59.1 30.229 0.00 434 0.000
10/19/17 11:15a 58.8 72 49.8 3.0 S 7.0 58.8 30.228 0.00 412 0.000
10/19/17 11:10a 58.4 74 50.1 2.0 S 6.0 58.4 30.228 0.00 164 0.000
10/19/17 11:05a 57.7 75 49.8 2.0 S 6.0 57.7 30.229 0.00 84 0.000
10/19/17 11:00a 57.4 74 49.2 2.0 SSW 6.0 57.4 30.227 0.00 76 0.002
10/19/17 10:55a 57.1 74 48.9 1.0 SSW 7.0 57.1 30.227 0.00 65 0.000
10/19/17 10:50a 56.7 76 49.2 1.0 SSW 6.0 56.7 30.226 0.00 72 0.000
10/19/17 10:45a 56.4 76 48.9 3.0 S 7.0 56.4 30.224 0.00 119 0.000
10/19/17 10:40a 56.1 75 48.3 1.0 S 5.0 56.1 30.224 0.00 136 0.000
10/19/17 10:35a 55.7 76 48.2 1.0 S 8.0 55.7 30.224 0.00 203 0.000
10/19/17 10:30a 55.5 77 48.4 1.0 SSW 5.0 55.5 30.226 0.00 113 0.000
10/19/17 10:25a 55.0 77 47.9 2.0 SSW 5.0 55.0 30.222 0.00 69 0.000
10/19/17 10:20a 54.6 77 47.5 2.0 S 8.0 54.6 30.220 0.00 107 0.000
10/19/17 10:15a 54.4 77 47.3 1.0 S 5.0 54.4 30.219 0.00 71 0.000
10/19/17 10:10a 54.2 77 47.1 3.0 S 9.0 54.2 30.219 0.00 61 0.000
10/19/17 10:05a 53.9 77 46.9 2.0 SSW 6.0 53.9 30.218 0.00 167 0.000
10/19/17 10:00a 53.6 79 47.2 1.0 SSW 5.0 53.6 30.219 0.00 172 0.002
10/19/17 9:55a 53.2 79 46.9 3.0 S 8.0 53.2 30.217 0.00 170 0.000
10/19/17 9:50a 53.0 80 47.0 1.0 S 4.0 53.0 30.217 0.00 114 0.000
10/19/17 9:45a 52.7 80 46.7 1.0 S 4.0 52.7 30.215 0.00 58 0.000
10/19/17 9:40a 52.1 81 46.4 1.0 SSW 4.0 52.1 30.212 0.00 122 0.000
10/19/17 9:35a 51.4 81 45.8 2.0 S 7.0 51.4 30.211 0.00 156 0.000
10/19/17 9:30a 51.0 82 45.7 2.0 S 7.0 51.0 30.211 0.00 99 0.000
10/19/17 9:25a 50.6 82 45.3 3.0 SSW 9.0 50.4 30.212 0.00 49 0.000
10/19/17 9:20a 50.4 82 45.1 2.0 S 7.0 50.4 30.209 0.00 30 0.000
10/19/17 9:15a 50.1 82 44.8 2.0 S 6.0 50.1 30.210 0.00 33 0.000
10/19/17 9:10a 50.0 82 44.7 2.0 S 6.0 50.0 30.207 0.00 48 0.000
10/19/17 9:05a 49.8 83 44.8 2.0 S 5.0 49.8 30.205 0.00 39 0.000
10/19/17 9:00a 49.5 83 44.6 1.0 S 5.0 49.5 30.202 0.00 25 0.001
10/19/17 8:55a 49.3 83 44.4 2.0 S 6.0 49.3 30.200 0.00 25 0.000
10/19/17 8:50a 49.2 83 44.3 2.0 S 7.0 49.2 30.200 0.00 22 0.000
10/19/17 8:45a 49.0 83 44.1 2.0 S 8.0 49.0 30.197 0.00 21 0.000
10/19/17 8:40a 48.8 84 44.2 1.0 S 5.0 48.8 30.196 0.00 20 0.000
10/19/17 8:35a 48.7 84 44.1 1.0 S 4.0 48.7 30.195 0.00 18 0.000
10/19/17 8:30a 48.7 84 44.1 1.0 S 5.0 48.7 30.195 0.00 17 0.000
10/19/17 8:25a 48.6 84 44.0 1.0 S 5.0 48.6 30.195 0.00 15 0.000
10/19/17 8:20a 48.5 84 43.9 2.0 S 5.0 48.5 30.196 0.00 13 0.000
10/19/17 8:15a 48.4 84 43.8 1.0 S 5.0 48.4 30.196 0.00 11 0.000
10/19/17 8:10a 48.3 84 43.7 1.0 S 5.0 48.3 30.194 0.00 10 0.000
10/19/17 8:05a 48.3 84 43.7 1.0 S 4.0 48.3 30.194 0.00 6 0.000
10/19/17 8:00a 48.3 84 43.7 2.0 S 6.0 48.3 30.193 0.00 1 0.000
10/19/17 7:55a 48.3 84 43.7 1.0 S 5.0 48.3 30.193 0.00 0 0.000
10/19/17 7:50a 48.3 84 43.7 1.0 S 4.0 48.3 30.193 0.00 0 0.000
10/19/17 7:45a 48.3 84 43.7 1.0 S 4.0 48.3 30.187 0.00 0 0.000
10/19/17 7:40a 48.3 84 43.7 1.0 S 3.0 48.3 30.186 0.00 0 0.000
10/19/17 7:35a 48.5 84 43.9 1.0 S 5.0 48.5 30.187 0.00 0 0.000
10/19/17 7:30a 48.5 84 43.9 1.0 S 5.0 48.5 30.188 0.00 0 0.000
10/19/17 7:25a 48.7 83 43.8 1.0 S 4.0 48.7 30.186 0.00 0 0.000
10/19/17 7:20a 48.8 83 43.9 1.0 S 4.0 48.8 30.185 0.00 0 0.000
10/19/17 7:15a 48.9 83 44.0 1.0 S 4.0 48.9 30.186 0.00 0 0.000
10/19/17 7:10a 49.0 83 44.1 1.0 S 3.0 49.0 30.185 0.00 0 0.000
10/19/17 7:05a 49.2 83 44.3 1.0 S 4.0 49.2 30.183 0.00 0 0.000
10/19/17 7:00a 49.3 83 44.4 1.0 S 5.0 49.3 30.184 0.00 0 0.001
10/19/17 6:55a 49.3 83 44.4 1.0 S 4.0 49.3 30.187 0.00 0 0.000
10/19/17 6:50a 49.3 83 44.4 1.0 S 2.0 49.3 30.184 0.00 0 0.000
10/19/17 6:45a 49.3 83 44.4 1.0 SSW 5.0 49.3 30.184 0.00 0 0.000
10/19/17 6:40a 49.3 83 44.4 0.0 S 3.0 49.3 30.182 0.00 0 0.000
10/19/17 6:35a 49.4 83 44.5 1.0 SSW 4.0 49.4 30.181 0.00 0 0.000
10/19/17 6:30a 49.4 83 44.5 1.0 SSW 4.0 49.4 30.178 0.00 0 0.000
10/19/17 6:25a 49.6 83 44.6 0.0 SSW 2.0 49.6 30.179 0.00 0 0.000
10/19/17 6:20a 49.6 83 44.6 1.0 S 4.0 49.6 30.179 0.00 0 0.000
10/19/17 6:15a 49.6 83 44.6 1.0 SSW 4.0 49.6 30.177 0.00 0 0.000
10/19/17 6:10a 49.4 83 44.5 1.0 S 3.0 49.4 30.180 0.00 0 0.000
10/19/17 6:05a 49.3 83 44.4 1.0 S 3.0 49.3 30.180 0.00 0 0.000
10/19/17 6:00a 49.3 83 44.4 1.0 S 3.0 49.3 30.177 0.00 0 0.001
10/19/17 5:55a 49.4 83 44.5 0.0 S 2.0 49.4 30.184 0.00 0 0.000
10/19/17 5:50a 49.5 83 44.6 0.0 S 1.0 49.5 30.185 0.00 0 0.000
10/19/17 5:45a 49.5 83 44.6 0.0 S 3.0 49.5 30.187 0.00 0 0.000
10/19/17 5:40a 49.4 83 44.5 0.0 S 1.0 49.4 30.183 0.00 0 0.000
10/19/17 5:35a 49.4 83 44.5 0.0 S 2.0 49.4 30.182 0.00 0 0.000
10/19/17 5:30a 49.6 82 44.3 0.0 --- 0.0 49.6 30.183 0.00 0 0.000
10/19/17 5:25a 49.8 82 44.5 0.0 S 2.0 49.8 30.183 0.00 0 0.000
10/19/17 5:20a 50.2 81 44.6 0.0 S 1.0 50.2 30.182 0.00 0 0.000
10/19/17 5:15a 50.6 80 44.7 0.0 S 1.0 50.6 30.183 0.00 0 0.000
10/19/17 5:10a 50.8 80 44.9 0.0 S 1.0 50.8 30.182 0.00 0 0.000
10/19/17 5:05a 50.9 80 44.9 0.0 SSW 4.0 50.9 30.180 0.00 0 0.000
10/19/17 5:00a 50.9 80 44.9 0.0 S 1.0 50.9 30.174 0.00 0 0.001
10/19/17 4:55a 50.9 80 44.9 0.0 SSW 2.0 50.9 30.171 0.00 0 0.000
10/19/17 4:50a 50.8 80 44.9 0.0 SSW 2.0 50.8 30.171 0.00 0 0.000
10/19/17 4:45a 50.7 81 45.1 0.0 S 2.0 50.7 30.166 0.00 0 0.000
10/19/17 4:40a 50.7 80 44.8 0.0 SSW 2.0 50.7 30.163 0.00 0 0.000
10/19/17 4:35a 51.0 80 45.0 0.0 S 2.0 51.0 30.163 0.00 0 0.000
10/19/17 4:30a 51.1 80 45.1 0.0 S 1.0 51.1 30.168 0.00 0 0.000
10/19/17 4:25a 51.2 80 45.2 0.0 S 3.0 51.2 30.170 0.00 0 0.000
10/19/17 4:20a 51.2 80 45.2 0.0 SSW 2.0 51.2 30.170 0.00 0 0.000
10/19/17 4:15a 51.2 80 45.2 0.0 S 3.0 51.2 30.170 0.00 0 0.000
10/19/17 4:10a 51.1 80 45.1 0.0 S 2.0 51.1 30.168 0.00 0 0.000
10/19/17 4:05a 51.1 80 45.1 0.0 S 2.0 51.1 30.169 0.00 0 0.000
10/19/17 4:00a 51.0 80 45.0 0.0 SSW 3.0 51.0 30.168 0.00 0 0.001
10/19/17 3:55a 51.0 80 45.0 0.0 SSW 2.0 51.0 30.167 0.00 0 0.000
10/19/17 3:50a 51.0 80 45.0 0.0 S 2.0 51.0 30.167 0.00 0 0.000
10/19/17 3:45a 51.0 80 45.0 0.0 S 1.0 51.0 30.169 0.00 0 0.000
10/19/17 3:40a 51.3 80 45.3 0.0 S 1.0 51.3 30.172 0.00 0 0.000
10/19/17 3:35a 51.3 80 45.3 0.0 S 1.0 51.3 30.172 0.00 0 0.000
10/19/17 3:30a 51.4 80 45.4 0.0 S 2.0 51.4 30.168 0.00 0 0.000
10/19/17 3:25a 51.4 80 45.4 0.0 S 2.0 51.4 30.167 0.00 0 0.000
10/19/17 3:20a 51.4 80 45.4 0.0 S 1.0 51.4 30.166 0.00 0 0.000
10/19/17 3:15a 51.4 80 45.4 0.0 SSE 2.0 51.4 30.165 0.00 0 0.000
10/19/17 3:10a 51.3 80 45.3 0.0 SSW 2.0 51.3 30.161 0.00 0 0.000
10/19/17 3:05a 51.3 80 45.3 0.0 SSW 2.0 51.3 30.161 0.00 0 0.000
10/19/17 3:00a 51.4 80 45.4 0.0 SSW 1.0 51.4 30.161 0.00 0 0.001
10/19/17 2:55a 51.5 80 45.5 0.0 S 1.0 51.5 30.161 0.00 0 0.000
10/19/17 2:50a 51.7 80 45.7 0.0 S 1.0 51.7 30.160 0.00 0 0.000
10/19/17 2:45a 51.8 79 45.5 0.0 --- 0.0 51.8 30.159 0.00 0 0.000
10/19/17 2:40a 52.0 79 45.7 0.0 SSW 2.0 52.0 30.162 0.00 0 0.000
10/19/17 2:35a 52.0 79 45.7 0.0 S 2.0 52.0 30.161 0.00 0 0.000
10/19/17 2:30a 52.1 79 45.8 0.0 SSW 3.0 52.1 30.161 0.00 0 0.000
10/19/17 2:25a 52.2 79 45.9 0.0 S 3.0 52.2 30.160 0.00 0 0.000
10/19/17 2:20a 52.3 78 45.6 0.0 SSW 3.0 52.3 30.162 0.00 0 0.000
10/19/17 2:15a 52.4 78 45.7 1.0 SSW 4.0 52.4 30.165 0.00 0 0.000
10/19/17 2:10a 52.6 78 45.9 0.0 SSW 1.0 52.6 30.165 0.00 0 0.000
10/19/17 2:05a 52.6 78 45.9 1.0 S 5.0 52.6 30.165 0.00 0 0.000
10/19/17 2:00a 52.8 78 46.1 0.0 SSW 3.0 52.8 30.165 0.00 0 0.001
10/19/17 1:55a 52.8 78 46.1 0.0 SSW 3.0 52.8 30.165 0.00 0 0.000
10/19/17 1:50a 52.9 78 46.2 0.0 SSW 3.0 52.9 30.166 0.00 0 0.000
10/19/17 1:45a 52.8 78 46.1 0.0 SSW 3.0 52.8 30.166 0.00 0 0.000
10/19/17 1:40a 52.8 78 46.1 0.0 S 2.0 52.8 30.167 0.00 0 0.000
10/19/17 1:35a 52.8 78 46.1 0.0 SSW 3.0 52.8 30.167 0.00 0 0.000
10/19/17 1:30a 52.9 78 46.2 0.0 S 2.0 52.9 30.167 0.00 0 0.000
10/19/17 1:25a 53.0 77 46.0 0.0 S 2.0 53.0 30.167 0.00 0 0.000
10/19/17 1:20a 53.1 77 46.1 1.0 S 2.0 53.1 30.165 0.00 0 0.000
10/19/17 1:15a 53.3 77 46.3 0.0 S 2.0 53.3 30.164 0.00 0 0.000
10/19/17 1:10a 53.5 76 46.1 0.0 S 2.0 53.5 30.164 0.00 0 0.000
10/19/17 1:05a 53.7 76 46.3 1.0 SSW 5.0 53.7 30.162 0.00 0 0.000
10/19/17 1:00a 53.7 76 46.3 0.0 S 2.0 53.7 30.162 0.00 0 0.001
10/19/17 12:55a 53.8 76 46.4 1.0 S 4.0 53.8 30.161 0.00 0 0.000
10/19/17 12:50a 53.8 76 46.4 1.0 SSW 4.0 53.8 30.160 0.00 0 0.000
10/19/17 12:45a 53.9 76 46.5 1.0 S 4.0 53.9 30.160 0.00 0 0.000
10/19/17 12:40a 53.9 76 46.5 1.0 SSW 3.0 53.9 30.161 0.00 0 0.000
10/19/17 12:35a 53.9 76 46.5 0.0 S 2.0 53.9 30.160 0.00 0 0.000
10/19/17 12:30a 54.0 76 46.6 1.0 S 3.0 54.0 30.161 0.00 0 0.000
10/19/17 12:25a 54.0 76 46.6 0.0 S 3.0 54.0 30.159 0.00 0 0.000
10/19/17 12:20a 54.1 76 46.7 0.0 S 4.0 54.1 30.158 0.00 0 0.000
10/19/17 12:15a 53.9 76 46.5 1.0 S 5.0 53.9 30.158 0.00 0 0.000
10/19/17 12:10a 53.9 76 46.5 0.0 SSW 3.0 53.9 30.157 0.00 0 0.000
10/19/17 12:05a 54.0 76 46.6 0.0 SE 2.0 54.0 30.160 0.00 0 0.000

11,632 Page Views